createdAt,value
2018-03-26T00:00:17.953Z,8.76
2018-03-26T00:01:17.937Z,8.78
2018-03-26T00:02:17.903Z,8.73
2018-03-26T00:03:17.880Z,8.75
2018-03-26T00:04:17.856Z,8.75
2018-03-26T00:05:17.833Z,8.76
2018-03-26T00:06:17.808Z,8.73
2018-03-26T00:07:17.785Z,8.75
2018-03-26T00:08:17.760Z,8.76
2018-03-26T00:09:17.737Z,8.73
2018-03-26T00:10:17.713Z,8.73
2018-03-26T00:11:17.690Z,8.75
2018-03-26T00:12:17.666Z,8.63
2018-03-26T00:13:17.642Z,8.65
2018-03-26T00:14:17.617Z,8.73
2018-03-26T00:15:17.597Z,8.63
2018-03-26T00:16:17.572Z,8.63
2018-03-26T00:17:17.546Z,8.63
2018-03-26T00:18:17.521Z,8.65
2018-03-26T00:19:17.497Z,8.65
2018-03-26T00:20:17.474Z,8.57
2018-03-26T00:21:17.451Z,8.58
2018-03-26T00:22:17.424Z,8.55
2018-03-26T00:23:17.401Z,8.55
2018-03-26T00:24:17.378Z,8.55
2018-03-26T00:25:17.353Z,8.55
2018-03-26T00:26:17.329Z,8.50
2018-03-26T00:27:17.306Z,8.53
2018-03-26T00:28:17.285Z,8.50
2018-03-26T00:29:17.258Z,8.50
2018-03-26T00:30:17.234Z,8.45
2018-03-26T00:31:17.210Z,8.44
2018-03-26T00:32:17.185Z,8.45
2018-03-26T00:33:17.163Z,8.36
2018-03-26T00:34:17.138Z,8.33
2018-03-26T00:35:17.116Z,8.36
2018-03-26T00:36:17.091Z,8.32
2018-03-26T00:37:17.070Z,8.32
2018-03-26T00:38:17.804Z,8.35
2018-03-26T00:39:17.021Z,8.36
2018-03-26T00:40:16.997Z,8.33
2018-03-26T00:41:16.972Z,8.26
2018-03-26T00:42:16.947Z,8.32
2018-03-26T00:43:16.924Z,8.33
2018-03-26T00:44:16.901Z,8.33
2018-03-26T00:45:16.878Z,8.36
2018-03-26T00:46:16.854Z,8.36
2018-03-26T00:47:16.829Z,8.37
2018-03-26T00:48:16.806Z,8.33
2018-03-26T00:49:16.783Z,8.36
2018-03-26T00:50:16.758Z,8.35
2018-03-26T00:51:16.738Z,8.35
2018-03-26T00:52:16.716Z,8.33
2018-03-26T00:53:16.689Z,8.42
2018-03-26T00:54:16.663Z,8.45
2018-03-26T00:55:16.647Z,8.40
2018-03-26T00:56:16.617Z,8.33
2018-03-26T00:57:16.592Z,8.36
2018-03-26T00:58:16.569Z,8.35
2018-03-26T00:59:16.546Z,8.40
2018-03-26T01:00:16.522Z,8.42
2018-03-26T01:01:16.498Z,8.40
2018-03-26T01:02:16.474Z,8.42
2018-03-26T01:03:16.451Z,8.36
2018-03-26T01:04:16.428Z,8.36
2018-03-26T01:05:16.404Z,8.35
2018-03-26T01:06:16.379Z,8.33
2018-03-26T01:07:16.356Z,8.35
2018-03-26T01:08:16.333Z,8.33
2018-03-26T01:09:16.309Z,8.32
2018-03-26T01:10:16.285Z,8.36
2018-03-26T01:11:16.261Z,8.36
2018-03-26T01:12:16.237Z,8.28
2018-03-26T01:13:16.218Z,8.35
2018-03-26T01:14:16.190Z,8.35
2018-03-26T01:15:16.168Z,8.28
2018-03-26T01:16:16.143Z,8.28
2018-03-26T01:17:16.124Z,8.29
2018-03-26T01:18:16.096Z,8.28
2018-03-26T01:19:16.071Z,8.29
2018-03-26T01:20:16.048Z,8.29
2018-03-26T01:21:16.025Z,8.22
2018-03-26T01:22:16.001Z,8.29
2018-03-26T01:23:15.979Z,8.28
2018-03-26T01:24:15.954Z,8.30
2018-03-26T01:25:15.930Z,8.26
2018-03-26T01:26:15.906Z,8.21
2018-03-26T01:27:15.891Z,8.20
2018-03-26T01:28:15.859Z,8.25
2018-03-26T01:29:15.836Z,8.28
2018-03-26T01:30:15.811Z,8.28
2018-03-26T01:31:15.788Z,8.29
2018-03-26T01:32:15.765Z,8.18
2018-03-26T01:33:15.741Z,8.26
2018-03-26T01:34:15.716Z,8.21
2018-03-26T01:35:15.694Z,8.14
2018-03-26T01:36:15.669Z,8.18
2018-03-26T01:37:15.646Z,8.15
2018-03-26T01:38:15.677Z,8.14
2018-03-26T01:39:15.598Z,8.15
2018-03-26T01:40:15.575Z,8.15
2018-03-26T01:41:15.554Z,8.11
2018-03-26T01:42:15.530Z,8.12
2018-03-26T01:43:15.502Z,8.10
2018-03-26T01:44:15.480Z,8.10
2018-03-26T01:45:15.456Z,8.10
2018-03-26T01:46:15.430Z,8.08
2018-03-26T01:47:15.408Z,8.17
2018-03-26T01:48:15.385Z,8.14
2018-03-26T01:49:15.361Z,8.12
2018-03-26T01:50:15.336Z,8.15
2018-03-26T01:51:16.062Z,8.04
2018-03-26T01:52:15.288Z,8.15
2018-03-26T01:53:15.263Z,8.15
2018-03-26T01:54:15.241Z,8.08
2018-03-26T01:55:15.217Z,8.18
2018-03-26T01:56:15.193Z,8.08
2018-03-26T01:57:15.169Z,8.17
2018-03-26T01:58:15.145Z,8.14
2018-03-26T01:59:15.121Z,8.17
2018-03-26T02:00:15.103Z,8.18
2018-03-26T02:01:15.073Z,8.04
2018-03-26T02:02:15.802Z,8.07
2018-03-26T02:03:15.026Z,8.21
2018-03-26T02:04:15.002Z,8.08
2018-03-26T02:05:14.978Z,8.07
2018-03-26T02:06:14.953Z,8.18
2018-03-26T02:07:14.928Z,8.14
2018-03-26T02:08:14.906Z,8.22
2018-03-26T02:09:14.882Z,8.30
2018-03-26T02:10:14.858Z,8.28
2018-03-26T02:11:14.834Z,8.21
2018-03-26T02:12:14.813Z,8.22
2018-03-26T02:13:14.787Z,8.22
2018-03-26T02:14:14.761Z,8.25
2018-03-26T02:15:14.739Z,8.26
2018-03-26T02:16:14.715Z,8.18
2018-03-26T02:17:14.691Z,8.20
2018-03-26T02:18:14.665Z,8.18
2018-03-26T02:19:14.644Z,8.08
2018-03-26T02:20:14.619Z,8.14
2018-03-26T02:21:14.595Z,8.20
2018-03-26T02:22:14.570Z,8.07
2018-03-26T02:23:14.551Z,8.10
2018-03-26T02:24:14.524Z,8.18
2018-03-26T02:25:14.498Z,8.15
2018-03-26T02:26:14.479Z,8.10
2018-03-26T02:27:14.450Z,8.10
2018-03-26T02:28:15.176Z,8.11
2018-03-26T02:29:14.401Z,8.11
2018-03-26T02:30:14.379Z,8.02
2018-03-26T02:31:14.355Z,7.96
2018-03-26T02:32:14.329Z,7.96
2018-03-26T02:33:14.307Z,7.99
2018-03-26T02:34:14.281Z,7.84
2018-03-26T02:35:14.258Z,7.87
2018-03-26T02:36:14.233Z,7.93
2018-03-26T02:37:14.209Z,7.84
2018-03-26T02:38:14.184Z,7.79
2018-03-26T02:39:14.161Z,7.78
2018-03-26T02:40:14.136Z,7.79
2018-03-26T02:41:14.112Z,7.71
2018-03-26T02:42:14.087Z,7.59
2018-03-26T02:43:14.064Z,7.56
2018-03-26T02:44:14.041Z,7.56
2018-03-26T02:45:14.016Z,7.59
2018-03-26T02:46:13.991Z,7.52
2018-03-26T02:47:13.968Z,7.40
2018-03-26T02:48:13.959Z,7.44
2018-03-26T02:49:14.670Z,7.31
2018-03-26T02:50:13.895Z,7.24
2018-03-26T02:51:13.871Z,7.19
2018-03-26T02:52:13.848Z,7.15
2018-03-26T02:53:13.820Z,7.12
2018-03-26T02:54:13.799Z,7.16
2018-03-26T02:55:13.774Z,7.02
2018-03-26T02:56:13.749Z,7.07
2018-03-26T02:57:13.725Z,7.09
2018-03-26T02:58:13.698Z,6.99
2018-03-26T02:59:13.676Z,6.99
2018-03-26T03:00:13.651Z,6.98
2018-03-26T03:01:13.629Z,7.02
2018-03-26T03:02:13.602Z,6.97
2018-03-26T03:03:13.579Z,6.98
2018-03-26T03:04:13.557Z,6.90
2018-03-26T03:05:13.529Z,6.89
2018-03-26T03:06:13.504Z,7.04
2018-03-26T03:07:13.480Z,6.99
2018-03-26T03:08:13.456Z,7.04
2018-03-26T03:09:13.431Z,7.01
2018-03-26T03:10:13.406Z,6.98
2018-03-26T03:11:13.382Z,7.12
2018-03-26T03:12:13.357Z,7.13
2018-03-26T03:13:13.334Z,7.07
2018-03-26T03:14:13.308Z,7.12
2018-03-26T03:15:13.285Z,7.19
2018-03-26T03:16:13.260Z,7.17
2018-03-26T03:17:13.251Z,7.13
2018-03-26T03:18:13.210Z,7.08
2018-03-26T03:19:13.186Z,7.02
2018-03-26T03:20:13.162Z,7.07
2018-03-26T03:21:13.138Z,6.98
2018-03-26T03:22:13.112Z,7.01
2018-03-26T03:23:13.089Z,7.12
2018-03-26T03:24:13.063Z,7.12
2018-03-26T03:25:13.043Z,7.04
2018-03-26T03:26:13.014Z,7.16
2018-03-26T03:27:12.988Z,7.16
2018-03-26T03:28:12.966Z,7.08
2018-03-26T03:29:12.941Z,7.12
2018-03-26T03:30:12.918Z,7.17
2018-03-26T03:31:12.895Z,7.07
2018-03-26T03:32:12.868Z,7.19
2018-03-26T03:33:12.843Z,7.20
2018-03-26T03:34:12.822Z,7.15
2018-03-26T03:35:12.798Z,7.20
2018-03-26T03:36:12.769Z,7.15
2018-03-26T03:37:12.745Z,7.20
2018-03-26T03:38:12.718Z,7.19
2018-03-26T03:39:12.695Z,7.23
2018-03-26T03:40:12.671Z,7.19
2018-03-26T03:41:12.645Z,7.27
2018-03-26T03:42:12.621Z,7.19
2018-03-26T03:43:12.596Z,7.23
2018-03-26T03:44:12.572Z,7.32
2018-03-26T03:45:12.548Z,7.19
2018-03-26T03:46:12.521Z,7.23
2018-03-26T03:47:12.499Z,7.17
2018-03-26T03:48:12.474Z,7.29
2018-03-26T03:49:12.450Z,7.22
2018-03-26T03:50:12.424Z,7.24
2018-03-26T03:51:12.400Z,7.27
2018-03-26T03:52:12.375Z,7.31
2018-03-26T03:53:12.352Z,7.32
2018-03-26T03:54:12.366Z,7.31
2018-03-26T03:55:12.306Z,7.27
2018-03-26T03:56:12.279Z,7.26
2018-03-26T03:57:12.254Z,7.35
2018-03-26T03:58:12.228Z,7.29
2018-03-26T03:59:12.205Z,7.27
2018-03-26T04:00:12.187Z,7.31
2018-03-26T04:01:12.157Z,7.31
2018-03-26T04:02:12.131Z,7.26
2018-03-26T04:03:12.108Z,7.34
2018-03-26T04:04:12.085Z,7.34
2018-03-26T04:05:12.059Z,7.34
2018-03-26T04:06:12.033Z,7.27
2018-03-26T04:07:12.009Z,7.35
2018-03-26T04:08:11.986Z,7.34
2018-03-26T04:09:11.962Z,7.35
2018-03-26T04:10:11.937Z,7.32
2018-03-26T04:11:11.912Z,7.29
2018-03-26T04:12:11.888Z,7.27
2018-03-26T04:13:11.864Z,7.31
2018-03-26T04:14:11.839Z,7.31
2018-03-26T04:15:11.814Z,7.27
2018-03-26T04:16:11.790Z,7.26
2018-03-26T04:17:11.767Z,7.27
2018-03-26T04:18:13.244Z,7.31
2018-03-26T04:19:11.716Z,7.29
2018-03-26T04:20:11.694Z,7.23
2018-03-26T04:21:11.668Z,7.27
2018-03-26T04:22:11.645Z,7.34
2018-03-26T04:23:11.621Z,7.41
2018-03-26T04:24:11.597Z,7.41
2018-03-26T04:25:11.573Z,7.37
2018-03-26T04:26:11.548Z,7.49
2018-03-26T04:27:11.529Z,7.56
2018-03-26T04:28:11.498Z,7.56
2018-03-26T04:29:11.479Z,7.35
2018-03-26T04:30:11.450Z,7.35
2018-03-26T04:31:11.426Z,7.44
2018-03-26T04:32:11.402Z,7.38
2018-03-26T04:33:11.376Z,7.29
2018-03-26T04:34:11.352Z,7.32
2018-03-26T04:35:11.328Z,7.44
2018-03-26T04:36:11.305Z,7.42
2018-03-26T04:37:11.280Z,7.44
2018-03-26T04:38:11.254Z,7.45
2018-03-26T04:39:11.229Z,7.49
2018-03-26T04:40:11.955Z,7.53
2018-03-26T04:41:11.180Z,7.53
2018-03-26T04:42:11.156Z,7.52
2018-03-26T04:43:11.134Z,7.45
2018-03-26T04:44:11.108Z,7.49
2018-03-26T04:45:11.083Z,7.53
2018-03-26T04:46:11.057Z,7.55
2018-03-26T04:47:11.034Z,7.62
2018-03-26T04:48:11.010Z,7.45
2018-03-26T04:49:10.985Z,7.55
2018-03-26T04:50:10.960Z,7.50
2018-03-26T04:51:10.934Z,7.52
2018-03-26T04:52:10.911Z,7.50
2018-03-26T04:53:10.887Z,7.49
2018-03-26T04:54:10.861Z,7.56
2018-03-26T04:55:10.835Z,7.53
2018-03-26T04:56:10.813Z,7.53
2018-03-26T04:57:10.789Z,7.50
2018-03-26T04:58:10.763Z,7.50
2018-03-26T04:59:10.739Z,7.42
2018-03-26T05:00:10.714Z,7.38
2018-03-26T05:01:10.688Z,7.40
2018-03-26T05:02:10.677Z,7.49
2018-03-26T05:03:10.640Z,7.34
2018-03-26T05:04:10.616Z,7.47
2018-03-26T05:05:10.594Z,7.45
2018-03-26T05:06:10.567Z,7.42
2018-03-26T05:07:11.298Z,7.42
2018-03-26T05:08:10.518Z,7.49
2018-03-26T05:09:10.493Z,7.45
2018-03-26T05:10:10.468Z,7.41
2018-03-26T05:11:10.445Z,7.41
2018-03-26T05:12:10.419Z,7.40
2018-03-26T05:13:10.395Z,7.45
2018-03-26T05:14:10.368Z,7.41
2018-03-26T05:15:10.345Z,7.42
2018-03-26T05:16:10.320Z,7.49
2018-03-26T05:17:10.296Z,7.38
2018-03-26T05:18:10.271Z,7.38
2018-03-26T05:19:10.246Z,7.40
2018-03-26T05:20:10.222Z,7.45
2018-03-26T05:21:10.199Z,7.56
2018-03-26T05:22:10.174Z,7.49
2018-03-26T05:23:10.148Z,7.53
2018-03-26T05:24:10.124Z,7.42
2018-03-26T05:25:10.099Z,7.47
2018-03-26T05:26:10.074Z,7.31
2018-03-26T05:27:10.051Z,7.32
2018-03-26T05:28:10.026Z,7.31
2018-03-26T05:29:10.002Z,7.41
2018-03-26T05:30:09.975Z,7.38
2018-03-26T05:31:10.024Z,7.27
2018-03-26T05:32:09.926Z,7.31
2018-03-26T05:33:09.903Z,7.35
2018-03-26T05:34:09.878Z,7.37
2018-03-26T05:35:09.853Z,7.34
2018-03-26T05:36:09.838Z,7.41
2018-03-26T05:37:09.805Z,7.42
2018-03-26T05:38:09.779Z,7.41
2018-03-26T05:39:09.755Z,7.38
2018-03-26T05:40:09.730Z,7.42
2018-03-26T05:41:09.707Z,7.35
2018-03-26T05:42:09.680Z,7.41
2018-03-26T05:43:09.655Z,7.29
2018-03-26T05:44:09.632Z,7.29
2018-03-26T05:45:09.608Z,7.27
2018-03-26T05:46:09.582Z,7.32
2018-03-26T05:47:09.558Z,7.31
2018-03-26T05:48:09.534Z,7.42
2018-03-26T05:49:10.270Z,7.31
2018-03-26T05:50:09.484Z,7.37
2018-03-26T05:51:09.459Z,7.42
2018-03-26T05:52:09.465Z,7.47
2018-03-26T05:53:09.412Z,7.49
2018-03-26T05:54:09.386Z,7.38
2018-03-26T05:55:09.362Z,7.56
2018-03-26T05:56:09.343Z,7.52
2018-03-26T05:57:09.315Z,7.52
2018-03-26T05:58:09.288Z,7.49
2018-03-26T05:59:09.264Z,7.47
2018-03-26T06:00:09.240Z,7.52
2018-03-26T06:01:09.215Z,7.49
2018-03-26T06:02:09.207Z,7.50
2018-03-26T06:03:09.165Z,7.52
2018-03-26T06:04:09.142Z,7.52
2018-03-26T06:05:09.117Z,7.50
2018-03-26T06:06:09.095Z,7.49
2018-03-26T06:07:09.068Z,7.41
2018-03-26T06:08:09.043Z,7.45
2018-03-26T06:09:09.019Z,7.42
2018-03-26T06:10:08.994Z,7.47
2018-03-26T06:11:08.970Z,7.44
2018-03-26T06:12:08.945Z,7.38
2018-03-26T06:13:08.921Z,7.47
2018-03-26T06:14:08.895Z,7.41
2018-03-26T06:15:08.872Z,7.41
2018-03-26T06:16:08.847Z,7.44
2018-03-26T06:17:08.821Z,7.38
2018-03-26T06:18:08.796Z,7.37
2018-03-26T06:19:08.838Z,7.42
2018-03-26T06:20:08.746Z,7.38
2018-03-26T06:21:08.721Z,7.44
2018-03-26T06:22:08.746Z,7.50
2018-03-26T06:23:08.673Z,7.49
2018-03-26T06:24:08.651Z,7.49
2018-03-26T06:25:10.123Z,7.56
2018-03-26T06:26:08.596Z,7.56
2018-03-26T06:27:08.572Z,7.49
2018-03-26T06:28:08.549Z,7.55
2018-03-26T06:29:08.525Z,7.53
2018-03-26T06:30:08.498Z,7.53
2018-03-26T06:31:10.724Z,7.58
2018-03-26T06:32:08.449Z,7.45
2018-03-26T06:33:08.425Z,7.50
2018-03-26T06:34:08.400Z,7.53
2018-03-26T06:35:08.375Z,7.45
2018-03-26T06:36:08.351Z,7.47
2018-03-26T06:37:08.325Z,7.50
2018-03-26T06:38:08.300Z,7.55
2018-03-26T06:39:08.275Z,7.50
2018-03-26T06:40:08.306Z,7.63
2018-03-26T06:41:08.226Z,7.52
2018-03-26T06:42:08.207Z,7.55
2018-03-26T06:43:08.178Z,7.59
2018-03-26T06:44:08.162Z,7.60
2018-03-26T06:45:08.129Z,7.59
2018-03-26T06:46:08.103Z,7.56
2018-03-26T06:47:08.079Z,7.71
2018-03-26T06:48:08.805Z,7.62
2018-03-26T06:49:08.032Z,7.56
2018-03-26T06:50:08.005Z,7.66
2018-03-26T06:51:07.979Z,7.62
2018-03-26T06:52:07.955Z,7.59
2018-03-26T06:53:07.933Z,7.58
2018-03-26T06:54:07.906Z,7.60
2018-03-26T06:55:07.882Z,7.66
2018-03-26T06:56:07.857Z,7.53
2018-03-26T06:57:07.832Z,7.53
2018-03-26T06:58:07.808Z,7.59
2018-03-26T06:59:07.783Z,7.66
2018-03-26T07:00:07.759Z,7.58
2018-03-26T07:01:07.737Z,7.60
2018-03-26T07:02:07.710Z,7.58
2018-03-26T07:03:07.685Z,7.60
2018-03-26T07:04:07.661Z,7.56
2018-03-26T07:05:07.641Z,7.62
2018-03-26T07:06:07.611Z,7.59
2018-03-26T07:07:07.587Z,7.59
2018-03-26T07:08:07.562Z,7.60
2018-03-26T07:09:07.539Z,7.66
2018-03-26T07:10:08.264Z,7.62
2018-03-26T07:11:07.489Z,7.55
2018-03-26T07:12:07.463Z,7.59
2018-03-26T07:13:07.440Z,7.60
2018-03-26T07:14:07.416Z,7.58
2018-03-26T07:15:07.391Z,7.63
2018-03-26T07:16:07.365Z,7.71
2018-03-26T07:17:07.342Z,7.62
2018-03-26T07:18:07.316Z,7.69
2018-03-26T07:19:07.292Z,7.74
2018-03-26T07:20:07.267Z,7.72
2018-03-26T07:21:07.244Z,7.67
2018-03-26T07:22:07.219Z,7.60
2018-03-26T07:23:07.194Z,7.66
2018-03-26T07:24:07.174Z,7.63
2018-03-26T07:25:07.145Z,7.63
2018-03-26T07:26:07.120Z,7.56
2018-03-26T07:27:07.096Z,7.63
2018-03-26T07:28:07.072Z,7.60
2018-03-26T07:29:07.048Z,7.60
2018-03-26T07:30:07.023Z,7.71
2018-03-26T07:31:06.996Z,7.59
2018-03-26T07:32:07.724Z,7.63
2018-03-26T07:33:06.948Z,7.67
2018-03-26T07:34:06.923Z,7.66
2018-03-26T07:35:06.900Z,7.72
2018-03-26T07:36:06.875Z,7.62
2018-03-26T07:37:06.850Z,7.69
2018-03-26T07:38:06.826Z,7.67
2018-03-26T07:39:06.800Z,7.69
2018-03-26T07:40:06.775Z,7.75
2018-03-26T07:41:06.806Z,7.75
2018-03-26T07:42:06.727Z,7.84
2018-03-26T07:43:06.713Z,7.78
2018-03-26T07:44:06.678Z,7.77
2018-03-26T07:45:06.654Z,7.85
2018-03-26T07:46:06.629Z,7.93
2018-03-26T07:47:06.604Z,7.96
2018-03-26T07:48:06.580Z,8.02
2018-03-26T07:49:06.555Z,7.92
2018-03-26T07:50:06.532Z,7.87
2018-03-26T07:51:06.512Z,7.90
2018-03-26T07:52:06.483Z,7.89
2018-03-26T07:53:06.466Z,7.97
2018-03-26T07:54:06.432Z,7.92
2018-03-26T07:55:06.409Z,7.85
2018-03-26T07:56:06.386Z,7.94
2018-03-26T07:57:06.397Z,7.85
2018-03-26T07:58:06.337Z,7.90
2018-03-26T07:59:06.313Z,7.96
2018-03-26T08:00:06.289Z,7.96
2018-03-26T08:01:06.265Z,7.90
2018-03-26T08:02:06.240Z,7.87
2018-03-26T08:03:06.215Z,7.87
2018-03-26T08:04:06.192Z,7.89
2018-03-26T08:05:06.168Z,7.93
2018-03-26T08:06:06.143Z,7.97
2018-03-26T08:07:06.117Z,7.96
2018-03-26T08:08:06.093Z,8.02
2018-03-26T08:09:06.070Z,8.04
2018-03-26T08:10:06.046Z,8.12
2018-03-26T08:11:06.022Z,8.11
2018-03-26T08:12:05.998Z,8.08
2018-03-26T08:13:05.973Z,8.11
2018-03-26T08:14:05.949Z,8.11
2018-03-26T08:15:05.924Z,8.08
2018-03-26T08:16:05.902Z,8.02
2018-03-26T08:17:05.916Z,7.99
2018-03-26T08:18:05.851Z,8.02
2018-03-26T08:19:05.829Z,7.99
2018-03-26T08:20:05.804Z,7.99
2018-03-26T08:21:05.781Z,7.94
2018-03-26T08:22:05.757Z,7.87
2018-03-26T08:23:05.732Z,7.97
2018-03-26T08:24:05.712Z,8.07
2018-03-26T08:25:05.686Z,8.04
2018-03-26T08:26:05.660Z,8.07
2018-03-26T08:27:05.636Z,8.02
2018-03-26T08:28:05.612Z,8.03
2018-03-26T08:29:05.588Z,8.14
2018-03-26T08:30:05.564Z,8.03
2018-03-26T08:31:05.541Z,8.11
2018-03-26T08:32:06.470Z,8.03
2018-03-26T08:33:05.491Z,8.10
2018-03-26T08:34:05.466Z,8.08
2018-03-26T08:35:05.444Z,8.20
2018-03-26T08:36:05.420Z,8.11
2018-03-26T08:37:05.395Z,8.25
2018-03-26T08:38:05.375Z,8.26
2018-03-26T08:39:05.348Z,8.25
2018-03-26T08:40:05.325Z,8.08
2018-03-26T08:41:05.300Z,8.14
2018-03-26T08:42:05.276Z,8.14
2018-03-26T08:43:05.263Z,8.04
2018-03-26T08:44:05.228Z,8.17
2018-03-26T08:45:05.205Z,8.20
2018-03-26T08:46:05.180Z,8.35
2018-03-26T08:47:05.155Z,8.29
2018-03-26T08:48:05.131Z,8.32
2018-03-26T08:49:05.109Z,8.37
2018-03-26T08:50:05.254Z,8.26
2018-03-26T08:51:05.060Z,8.26
2018-03-26T08:52:05.037Z,8.14
2018-03-26T08:53:05.019Z,8.32
2018-03-26T08:54:04.989Z,8.40
2018-03-26T08:55:04.964Z,8.53
2018-03-26T08:56:04.942Z,8.47
2018-03-26T08:57:07.169Z,8.30
2018-03-26T08:58:04.896Z,8.35
2018-03-26T08:59:04.871Z,8.21
2018-03-26T09:00:04.849Z,8.18
2018-03-26T09:01:04.824Z,8.12
2018-03-26T09:02:04.798Z,8.14
2018-03-26T09:03:07.785Z,8.28
2018-03-26T09:04:04.751Z,8.37
2018-03-26T09:05:04.729Z,8.47
2018-03-26T09:06:04.704Z,8.50
2018-03-26T09:07:04.681Z,8.54
2018-03-26T09:08:04.657Z,8.65
2018-03-26T09:09:04.634Z,8.48
2018-03-26T09:10:04.609Z,8.42
2018-03-26T09:11:04.587Z,8.39
2018-03-26T09:12:04.569Z,8.45
2018-03-26T09:13:04.539Z,8.42
2018-03-26T09:14:04.516Z,8.40
2018-03-26T09:15:04.492Z,8.53
2018-03-26T09:16:04.469Z,8.57
2018-03-26T09:17:04.446Z,8.63
2018-03-26T09:18:04.426Z,8.48
2018-03-26T09:19:04.398Z,8.58
2018-03-26T09:20:04.376Z,8.57
2018-03-26T09:21:04.356Z,8.71
2018-03-26T09:22:04.328Z,8.75
2018-03-26T09:23:04.304Z,8.76
2018-03-26T09:24:04.281Z,8.78
2018-03-26T09:25:04.259Z,8.75
2018-03-26T09:26:04.261Z,8.79
2018-03-26T09:27:04.211Z,8.76
2018-03-26T09:28:04.188Z,8.81
2018-03-26T09:29:04.167Z,8.86
2018-03-26T09:30:04.141Z,8.78
2018-03-26T09:31:04.167Z,8.79
2018-03-26T09:32:04.094Z,8.86
2018-03-26T09:33:04.072Z,8.90
2018-03-26T09:34:04.046Z,8.97
2018-03-26T09:35:04.023Z,8.78
2018-03-26T09:36:04.001Z,8.88
2018-03-26T09:37:03.985Z,9.01
2018-03-26T09:38:03.955Z,9.10
2018-03-26T09:39:03.931Z,9.09
2018-03-26T09:40:03.908Z,8.88
2018-03-26T09:41:04.638Z,8.87
2018-03-26T09:42:03.863Z,8.94
2018-03-26T09:43:03.839Z,8.87
2018-03-26T09:44:03.816Z,8.88
2018-03-26T09:45:03.797Z,9.16
2018-03-26T09:46:03.770Z,9.12
2018-03-26T09:47:03.747Z,9.35
2018-03-26T09:48:03.724Z,9.43
2018-03-26T09:49:03.702Z,9.40
2018-03-26T09:50:03.678Z,9.42
2018-03-26T09:51:03.656Z,9.34
2018-03-26T09:52:03.632Z,9.38
2018-03-26T09:53:03.610Z,9.34
2018-03-26T09:54:03.587Z,9.48
2018-03-26T09:55:03.564Z,9.43
2018-03-26T09:56:03.544Z,9.32
2018-03-26T09:57:03.521Z,9.12
2018-03-26T09:58:03.495Z,9.01
2018-03-26T09:59:03.473Z,8.99
2018-03-26T10:00:03.449Z,9.02
2018-03-26T10:01:03.428Z,9.20
2018-03-26T10:02:03.408Z,9.34
2018-03-26T10:03:03.429Z,9.45
2018-03-26T10:04:03.361Z,9.71
2018-03-26T10:05:03.341Z,9.68
2018-03-26T10:06:03.313Z,9.58
2018-03-26T10:07:03.292Z,9.50
2018-03-26T10:08:03.271Z,9.57
2018-03-26T10:09:03.249Z,9.53
2018-03-26T10:10:03.225Z,9.67
2018-03-26T10:11:03.208Z,9.70
2018-03-26T10:12:03.181Z,9.68
2018-03-26T10:13:03.158Z,9.91
2018-03-26T10:14:03.136Z,9.83
2018-03-26T10:15:03.115Z,9.71
2018-03-26T10:16:03.098Z,9.58
2018-03-26T10:17:03.069Z,9.60
2018-03-26T10:18:03.046Z,9.49
2018-03-26T10:19:03.025Z,9.49
2018-03-26T10:20:03.004Z,9.57
2018-03-26T10:21:02.980Z,9.57
2018-03-26T10:22:02.957Z,9.66
2018-03-26T10:23:02.936Z,9.82
2018-03-26T10:24:02.914Z,9.94
2018-03-26T10:25:02.890Z,10.01
2018-03-26T10:26:02.880Z,10.07
2018-03-26T10:27:02.846Z,10.00
2018-03-26T10:28:02.824Z,10.04
2018-03-26T10:29:02.802Z,10.19
2018-03-26T10:30:02.782Z,10.17
2018-03-26T10:31:02.758Z,10.07
2018-03-26T10:32:02.737Z,10.17
2018-03-26T10:33:03.464Z,10.30
2018-03-26T10:34:02.690Z,10.37
2018-03-26T10:35:02.668Z,10.43
2018-03-26T10:36:02.647Z,10.47
2018-03-26T10:37:02.629Z,10.56
2018-03-26T10:38:02.601Z,10.53
2018-03-26T10:39:02.581Z,10.60
2018-03-26T10:40:02.560Z,10.44
2018-03-26T10:41:02.538Z,10.15
2018-03-26T10:42:02.515Z,10.12
2018-03-26T10:43:02.494Z,10.15
2018-03-26T10:44:05.475Z,10.28
2018-03-26T10:45:02.451Z,10.40
2018-03-26T10:46:02.427Z,10.55
2018-03-26T10:47:02.410Z,10.63
2018-03-26T10:48:02.388Z,10.76
2018-03-26T10:49:02.363Z,10.91
2018-03-26T10:50:03.844Z,11.06
2018-03-26T10:51:02.323Z,11.17
2018-03-26T10:52:02.300Z,11.11
2018-03-26T10:53:02.279Z,11.24
2018-03-26T10:54:02.258Z,11.50
2018-03-26T10:55:02.238Z,11.68
2018-03-26T10:56:02.965Z,11.82
2018-03-26T10:57:02.196Z,11.82
2018-03-26T10:58:02.172Z,11.90
2018-03-26T10:59:02.152Z,12.02
2018-03-26T11:00:02.132Z,12.12
2018-03-26T11:01:02.110Z,12.19
2018-03-26T11:02:02.094Z,12.39
2018-03-26T11:03:02.077Z,12.19
2018-03-26T11:04:02.048Z,11.74
2018-03-26T11:05:02.027Z,11.71
2018-03-26T11:06:02.004Z,11.61
2018-03-26T11:07:03.487Z,11.87
2018-03-26T11:08:01.964Z,11.99
2018-03-26T11:09:01.945Z,11.90
2018-03-26T11:10:01.924Z,11.71
2018-03-26T11:11:01.904Z,11.50
2018-03-26T11:12:01.884Z,11.64
2018-03-26T11:13:01.863Z,11.53
2018-03-26T11:14:01.840Z,11.46
2018-03-26T11:15:01.820Z,11.46
2018-03-26T11:16:01.801Z,11.34
2018-03-26T11:17:01.785Z,11.34
2018-03-26T11:18:01.760Z,11.20
2018-03-26T11:19:01.739Z,11.29
2018-03-26T11:20:01.719Z,11.47
2018-03-26T11:21:01.702Z,11.61
2018-03-26T11:22:01.678Z,11.64
2018-03-26T11:23:01.661Z,11.64
2018-03-26T11:24:05.390Z,11.70
2018-03-26T11:25:01.617Z,11.85
2018-03-26T11:26:01.595Z,11.70
2018-03-26T11:27:01.574Z,11.52
2018-03-26T11:28:01.575Z,11.25
2018-03-26T11:29:01.535Z,11.24
2018-03-26T11:30:02.267Z,11.16
2018-03-26T11:31:01.492Z,11.28
2018-03-26T11:32:01.474Z,11.35
2018-03-26T11:33:01.453Z,11.49
2018-03-26T11:34:01.432Z,11.62
2018-03-26T11:35:01.410Z,11.70
2018-03-26T11:36:01.389Z,11.86
2018-03-26T11:37:01.368Z,11.97
2018-03-26T11:38:01.345Z,12.04
2018-03-26T11:39:01.326Z,11.78
2018-03-26T11:40:01.305Z,11.72
2018-03-26T11:41:01.287Z,11.67
2018-03-26T11:42:01.263Z,11.70
2018-03-26T11:43:01.249Z,11.68
2018-03-26T11:44:01.223Z,11.71
2018-03-26T11:45:01.202Z,11.77
2018-03-26T11:46:01.179Z,12.02
2018-03-26T11:47:01.160Z,11.93
2018-03-26T11:48:01.141Z,11.96
2018-03-26T11:49:01.119Z,11.83
2018-03-26T11:50:01.102Z,11.72
2018-03-26T11:51:01.077Z,11.83
2018-03-26T11:52:01.056Z,11.89
2018-03-26T11:53:01.035Z,11.83
2018-03-26T11:54:01.013Z,11.86
2018-03-26T11:55:00.995Z,12.15
2018-03-26T11:56:03.226Z,12.39
2018-03-26T11:57:00.952Z,12.54
2018-03-26T11:58:00.931Z,12.52
2018-03-26T11:59:00.910Z,12.59
2018-03-26T12:00:00.892Z,12.74
2018-03-26T12:01:00.872Z,12.66
2018-03-26T12:02:01.602Z,12.70
2018-03-26T12:03:00.831Z,12.59
2018-03-26T12:04:00.810Z,12.45
2018-03-26T12:05:00.790Z,12.21
2018-03-26T12:06:00.768Z,12.16
2018-03-26T12:07:00.749Z,12.02
2018-03-26T12:08:00.729Z,11.87
2018-03-26T12:09:00.709Z,11.82
2018-03-26T12:10:00.688Z,11.72
2018-03-26T12:11:00.667Z,11.72
2018-03-26T12:12:00.647Z,11.61
2018-03-26T12:13:00.630Z,11.59
2018-03-26T12:14:00.605Z,11.61
2018-03-26T12:15:00.583Z,11.49
2018-03-26T12:16:00.564Z,11.50
2018-03-26T12:17:00.544Z,11.35
2018-03-26T12:18:04.275Z,11.21
2018-03-26T12:19:00.501Z,11.13
2018-03-26T12:20:00.483Z,10.92
2018-03-26T12:21:00.458Z,10.83
2018-03-26T12:22:00.438Z,10.74
2018-03-26T12:23:00.417Z,10.63
2018-03-26T12:24:02.646Z,10.65
2018-03-26T12:25:00.374Z,10.60
2018-03-26T12:26:00.352Z,10.60
2018-03-26T12:27:00.330Z,10.71
2018-03-26T12:28:00.308Z,10.66
2018-03-26T12:29:00.293Z,10.66
2018-03-26T12:30:03.268Z,10.65
2018-03-26T12:31:00.244Z,10.65
2018-03-26T12:32:00.223Z,10.60
2018-03-26T12:33:00.200Z,10.71
2018-03-26T12:34:00.178Z,10.65
2018-03-26T12:35:00.157Z,10.62
2018-03-26T12:36:05.391Z,10.65
2018-03-26T12:37:00.113Z,10.56
2018-03-26T12:38:00.092Z,10.53
2018-03-26T12:39:00.074Z,10.37
2018-03-26T12:40:00.071Z,10.46
2018-03-26T12:41:00.025Z,10.43
2018-03-26T12:42:00.003Z,10.36
2018-03-26T12:42:59.982Z,10.32
2018-03-26T12:43:59.961Z,10.06
2018-03-26T12:44:59.944Z,9.97
2018-03-26T12:45:59.914Z,9.93
2018-03-26T12:46:59.891Z,9.86
2018-03-26T12:47:59.871Z,9.64
2018-03-26T12:48:59.849Z,9.56
2018-03-26T12:49:59.825Z,9.35
2018-03-26T12:50:59.802Z,9.42
2018-03-26T12:51:59.781Z,9.38
2018-03-26T12:52:59.758Z,9.21
2018-03-26T12:53:59.740Z,9.05
2018-03-26T12:54:59.763Z,8.99
2018-03-26T12:55:59.691Z,8.84
2018-03-26T12:56:59.668Z,8.68
2018-03-26T12:58:01.898Z,8.48
2018-03-26T12:58:59.621Z,8.32
2018-03-26T12:59:59.606Z,8.21
2018-03-26T13:00:59.579Z,8.10
2018-03-26T13:01:59.555Z,8.25
2018-03-26T13:02:59.532Z,8.18
2018-03-26T13:03:59.517Z,8.25
2018-03-26T13:04:59.486Z,8.39
2018-03-26T13:05:59.462Z,8.58
2018-03-26T13:06:59.440Z,8.66
2018-03-26T13:07:59.417Z,8.76
2018-03-26T13:08:59.395Z,8.76
2018-03-26T13:09:59.370Z,8.96
2018-03-26T13:10:59.349Z,9.05
2018-03-26T13:11:59.330Z,9.04
2018-03-26T13:12:59.304Z,8.99